Terminal Aerodrome Forecast
Issued by NWS Sioux Falls, SD

Home | Current Version | Previous Version | Text Only | Print | Product List | Glossary Off
Versions: 1 2 3 4 5 6 7 8 9 10 11 12 13 14 15 16 17 18 19

000
FTUS43 KFSD 131700
TAFFSD
TAF
KFSD 131730Z 1318/1418 31009KT P6SM FEW040 FEW150
     FM132000 32012G19KT P6SM SCT040
     FM140030 35008KT P6SM SKC
     FM141500 35014G20KT P6SM SCT045=

USA.gov is the U.S. government's official web portal to all federal, state and local government web resources and services.